Aeroporto :
LOGIN :

Iscrizione | Disclaimer

   EN    FR    IT 

 










Sommario :    VFR   VFR Marginale   IFR   IFR Intensivo   IFR Molto Intensivo
Visibilità : 
Base nubi : 
>= 8 km
>= 3000ft
5 / 8 km
1000 / 3000 ft
1500m / 5 km
500 / 1000 ft
800 / 1500m
200 / 500 ft
< 800m
< 200 ft
Simboli :   Temporali  Nebbia  Neve Forte  Precipitazioni Forti  Vento > 20 kt
SIGMETs :   Varie  Temporali  Ghiacco  Turbolenza  Onda orograficha  Ceneri Vulcaniche






- Altitudine del aeroporto : 90 ft
- Codice IATA : NTE


LFRS - Nantes

ULTIMO METAR :
  • 211530Z AUTO 23008KT 200V270 9999 OVC040 11/04 Q1031 NOSIG

METARs OBSOLETI :
  • 211500Z AUTO 21007KT 180V250 9999 BKN039 11/03 Q1031 NOSIG
  • 211430Z AUTO 21009KT 180V250 9999 BKN040 11/04 Q1031 NOSIG
  • 211400Z AUTO 21008KT 180V260 9999 BKN042 11/05 Q1031 NOSIG
  • 211330Z AUTO 22007KT 190V260 9999 BKN037 OVC043 10/04 Q1032 NOSIG
  • 211300Z AUTO 24008KT 210V280 9999 OVC040 11/04 Q1032 NOSIG

TAF TAF LFRS
Valido dal 21 a 12 ore il 22 a 18 ore UTC


211100Z 2112/2218 21010KT 9999 SCT020 BKN040
BECMG 2206/2209 BKN014
BECMG 2212/2214 SCT017
ATIS : +33 2 40 05 12 74



MetMap, La meteo Aeronautica in un colpo d'occhio ! - Copyright ORBIFLY Dicembre 2007 - Disclaimer

ORBIFLY MET'MAP TEAM :

Programmazione e sviluppo : Alexandra Zaïnal
Concezione : Baudouin d'Aumeries
Aiuto per la programmazione : Marc-Olivier Méhu
Supporto tecnico e logistico : Manuel Goepfert
Aiuto per la traduzione : Arnaldo La Scala

Contatto : metmap@orbifly.com




FONTI E CREDITI :

   NOAA